UACCLBBG

Guest
Details From UACC - Astana Intl
To LBBG - Burgas
Flight Number -
Tags Generated
Created
Modified
Stats Distance 1,847 nm / 3,421 km
Max Altitude 0 ft / 0 m
Waypoints 5
Social Downloads 0
Likes 0
Share VATSIM

Download

Looking for another format? Having issues loading an existing format? Contact us
Advertisement - Login to hide

Notes

Generated

Route

UACC ORTES BOMKI BGS95 LBBG

ID Type Via Altitude Latitude Longitude Leg Dist Tot Dist Heading (true) Name
O UACC APT - 0 ft / 0 m 51.01097˚ 71.44957˚ - 0 nm - -
ORTES FIX - 0 ft / 0 m 47.67833˚ 42.02500˚ 1160 nm 1160 nm 272° / 249° -
BOMKI FIX - 0 ft / 0 m 44.53470˚ 32.02843˚ 456 nm 1617 nm 249° / 242° -
BGS95 FIX - 0 ft / 0 m 42.64390˚ 27.68460˚ 220 nm 1837 nm 241° / 238° -
O LBBG APT - 0 ft / 0 m 42.55983˚ 27.50160˚ 9 nm 1847 nm 238° / 238° -

Altitude Profile

Advertisement - Login to hide

Weather


0- 5 10 15 20 25 30 35+ Temperature / ° C

Clouds and Precipitation
Forecast for 2017-12-14 06:00 UTC. Updated an hour ago

Ground ~20,000 ft ~40,000 ft Winds

UACC

Details ICAO UACC (TSE)
Name Astana INTL
Region Kazakhstan and Kyrgyzstan
Timezone Asia/Almaty (UTC+6.0)
Stats Elevation 1,165 ft / 355 m (AMSL)
Location 51.022180° 71.467062°
Runways 1
Magnetic Variation 9.843° E

METAR

UACC 140630Z 06003MPS 9000 NSC M18/M19 Q1044 R04/85//60 NOSIG RMK QFE750/1001

Decode

TAF

TAF UACC 140500Z 1406/1506 08004MPS 9999 SCT100 TXM18/1409Z TNM28/1501Z TEMPO 1418/1504 3000 BR SCT006

Decode

Departure Runways

ID Width Length Bearing (true) Bearing (mag) Surface Threshold Offset Overrun Length
04 148 ft / 45 m 11,467 ft / 3,495 m 44.45° 34.61° Asphalt 0 ft / 0 m 0 ft / 0 m
22 148 ft / 45 m 11,467 ft / 3,495 m 224.48° 214.64° Asphalt 0 ft / 0 m 0 ft / 0 m

LBBG

Details ICAO LBBG (BOJ)
Name Burgas
Region Bulgaria
Timezone Europe/Sofia (UTC+2.0)
Stats Elevation 135 ft / 41 m (AMSL)
Location 42.570130° 27.515240°
Runways 1
Magnetic Variation 5.503° E

METAR

LBBG 140630Z 15004KT 110V200 9999 FEW048 09/08 Q1013 NOSIG

Decode

TAF

TAF TAF LBBG 140500Z 1406/1506 28010KT 9999 SCT033 SCT045 TEMPO 1413/1418 12008KT BECMG 1418/1420 22008KT BECMG 1422/1424 4000 BR SCT012 TEMPO 1500/15076 0400 FG BKN003

Decode

Destination Runways

ID Width Length Bearing (true) Bearing (mag) Surface Threshold Offset Overrun Length
04 148 ft / 45 m 10,502 ft / 3,201 m 44.28° 38.78° Concrete 0 ft / 0 m 190 ft / 58 m
22 148 ft / 45 m 10,502 ft / 3,201 m 224.29° 218.79° Concrete 0 ft / 0 m 190 ft / 58 m

Approach Navaids

Runway Type Ident Frequency Range Bearing (true) Bearing (mag) Slope Elevation
22 Localiser IBG 110.30 MHz 18 nm / 33 km 224.26° 218.76° - 135 ft / 41 m (AMSL)
22 Glidescope IBG 110.30 MHz 10 nm / 19 km 224.28° 218.78° 3.00° 135 ft / 41 m (AMSL)